Time;durP1;ratioP1;P1;durP2;ratioP2;P2;SDS_P1;SDS_P2;PMS_P1;PMS_P2;Temp;Humidity;BMP_temperature;BMP_pressure;BME280_temperature;BME280_humidity;BME280_pressure;Samples;Min_cycle;Max_cycle;Signal;HPM_P1;HPM_P2
2022/01/19 00:01:05;;;;;;;25.43;14.30;;;4.70;91.40;;;;;;4974135;28;20190;-90
2022/01/19 00:03:31;;;;;;;31.67;15.80;;;4.60;91.40;;;;;;4975282;28;20196;-92
2022/01/19 00:05:57;;;;;;;29.67;16.27;;;4.70;91.40;;;;;;4975152;28;20186;-89
2022/01/19 00:08:23;;;;;;;29.67;15.27;;;4.60;91.40;;;;;;4975093;28;20243;-92
2022/01/19 00:10:50;;;;;;;22.90;13.30;;;4.70;91.40;;;;;;4974912;28;20178;-91
2022/01/19 00:13:17;;;;;;;30.23;14.67;;;4.60;91.30;;;;;;4974352;28;20214;-92
2022/01/19 00:15:44;;;;;;;30.63;15.50;;;4.60;91.30;;;;;;4974833;28;20180;-90
2022/01/19 00:18:09;;;;;;;26.50;15.60;;;4.60;91.40;;;;;;4974945;28;20270;-92
2022/01/19 00:20:36;;;;;;;32.33;16.00;;;4.60;91.30;;;;;;4974629;28;20341;-92
2022/01/19 00:23:04;;;;;;;29.80;16.30;;;4.60;91.30;;;;;;4975574;28;20242;-92
2022/01/19 00:25:31;;;;;;;28.47;15.70;;;4.50;91.30;;;;;;4975248;28;20168;-91
2022/01/19 00:27:57;;;;;;;19.97;10.43;;;4.60;91.30;;;;;;4974402;28;20245;-90
2022/01/19 00:30:23;;;;;;;29.30;15.37;;;4.50;91.00;;;;;;4973938;28;20191;-90
2022/01/19 00:32:49;;;;;;;28.83;16.67;;;4.50;91.10;;;;;;4973976;28;20567;-89
2022/01/19 00:35:15;;;;;;;25.33;14.37;;;4.50;91.30;;;;;;4973719;28;20569;-88
2022/01/19 00:37:42;;;;;;;33.27;16.50;;;4.40;91.10;;;;;;4975064;28;20175;-88
2022/01/19 00:40:10;;;;;;;29.03;17.37;;;4.40;90.90;;;;;;4976993;28;20202;-91
2022/01/19 00:42:36;;;;;;;35.30;17.20;;;4.40;90.90;;;;;;4977426;28;20266;-91
2022/01/19 00:45:03;;;;;;;37.07;18.47;;;4.40;91.00;;;;;;4977838;28;20209;-91
2022/01/19 00:47:29;;;;;;;29.80;17.50;;;4.30;91.10;;;;;;4977697;28;20175;-89
2022/01/19 00:49:55;;;;;;;24.97;16.20;;;4.30;91.20;;;;;;4978526;28;20183;-92
2022/01/19 00:52:21;;;;;;;30.37;16.37;;;4.30;91.30;;;;;;4977750;28;20290;-91
2022/01/19 00:54:47;;;;;;;32.87;18.43;;;4.30;91.20;;;;;;4977625;28;20186;-91
2022/01/19 00:57:13;;;;;;;32.00;16.90;;;4.30;91.30;;;;;;4978053;28;20317;-89
2022/01/19 00:59:38;;;;;;;31.87;17.20;;;4.30;91.30;;;;;;4977832;28;20199;-91
2022/01/19 01:02:05;;;;;;;33.50;18.90;;;4.30;91.50;;;;;;4977792;28;20190;-90
2022/01/19 01:04:32;;;;;;;29.27;18.10;;;4.30;91.60;;;;;;4977680;28;20289;-90
2022/01/19 01:06:58;;;;;;;37.07;18.43;;;4.30;91.70;;;;;;4977716;28;20265;-90
2022/01/19 01:09:24;;;;;;;37.30;18.80;;;4.30;91.60;;;;;;4977789;28;20194;-90
2022/01/19 01:12:02;;;;;;;23.70;12.90;;;4.30;91.70;;;;;;4977814;28;20190;-90
2022/01/19 01:20:01;;;;;;;36.63;19.33;;;4.40;91.50;;;;;;4978891;28;20195;-90
2022/01/19 01:22:27;;;;;;;32.03;15.80;;;4.40;91.60;;;;;;4977388;28;20218;-89
2022/01/19 01:24:53;;;;;;;31.00;15.43;;;4.30;91.60;;;;;;4978710;28;20175;-92
2022/01/19 01:27:18;;;;;;;30.17;16.93;;;4.30;91.40;;;;;;4977340;28;20170;-91
2022/01/19 01:29:44;;;;;;;37.33;18.43;;;4.30;91.40;;;;;;4977398;28;20182;-91
2022/01/19 01:32:10;;;;;;;34.83;18.67;;;4.40;91.30;;;;;;4977098;28;20270;-90
2022/01/19 01:34:36;;;;;;;34.50;16.43;;;4.40;91.20;;;;;;4976369;28;20254;-91
2022/01/19 01:37:02;;;;;;;28.67;17.13;;;4.40;91.20;;;;;;4976770;28;20183;-89
2022/01/19 01:39:28;;;;;;;29.10;17.97;;;4.40;91.30;;;;;;4976401;28;20202;-89
2022/01/19 01:41:54;;;;;;;31.30;17.63;;;4.30;91.30;;;;;;4976932;28;20274;-90
2022/01/19 01:44:20;;;;;;;32.30;16.93;;;4.30;91.20;;;;;;4976971;28;20214;-91
2022/01/19 01:46:50;;;;;;;31.83;17.40;;;4.30;91.30;;;;;;4976705;28;20647;-88
2022/01/19 01:49:28;;;;;;;29.23;16.43;;;4.30;91.40;;;;;;4976794;28;20187;-91
2022/01/19 01:54:40;;;;;;;29.60;13.77;;;4.10;91.60;;;;;;4978397;28;20741;-91
2022/01/19 01:57:06;;;;;;;39.97;18.30;;;4.00;91.60;;;;;;4976978;28;20249;-90
2022/01/19 01:59:34;;;;;;;31.77;15.60;;;4.00;91.50;;;;;;4977139;28;20199;-90
2022/01/19 02:01:59;;;;;;;38.23;15.83;;;4.00;91.40;;;;;;4976461;28;20202;-92
2022/01/19 02:04:26;;;;;;;35.80;17.10;;;4.00;91.70;;;;;;4976867;28;20198;-91
2022/01/19 02:09:47;;;;;;;28.27;14.17;;;4.00;91.60;;;;;;4962408;28;20552;-90
2022/01/19 02:23:37;;;;;;;26.27;11.57;;;4.00;92.00;;;;;;4977788;28;20217;-91
2022/01/19 02:26:01;;;;;;;45.90;20.47;;;4.00;91.90;;;;;;4977571;28;20187;-90
2022/01/19 02:42:13;;;;;;;38.97;16.57;;;3.90;92.10;;;;;;4977671;28;20171;-92
2022/01/19 02:49:52;;;;;;;32.47;14.37;;;3.90;92.20;;;;;;4977615;28;20205;-92
2022/01/19 02:52:20;;;;;;;32.23;16.50;;;3.80;92.20;;;;;;4975983;28;20233;-92
2022/01/19 02:54:46;;;;;;;45.57;20.00;;;3.80;92.10;;;;;;4975974;28;20174;-92
2022/01/19 02:57:14;;;;;;;51.00;24.47;;;3.80;92.30;;;;;;4976031;28;20178;-91
2022/01/19 03:06:16;;;;;;;27.83;12.93;;;3.80;92.30;;;;;;4975775;28;20274;-91
2022/01/19 03:10:39;;;;;;;60.07;20.07;;;3.70;92.60;;;;;;4977194;28;20205;-92
2022/01/19 03:13:05;;;;;;;54.67;21.90;;;3.80;92.50;;;;;;4975954;28;20198;-91
2022/01/19 03:15:30;;;;;;;67.53;27.87;;;3.80;92.60;;;;;;4975972;28;20178;-92
2022/01/19 03:17:59;;;;;;;64.87;25.67;;;3.80;92.70;;;;;;4975377;28;20183;-91
2022/01/19 03:20:26;;;;;;;60.27;27.60;;;3.80;92.70;;;;;;4975670;28;20214;-92
2022/01/19 03:23:04;;;;;;;56.33;23.97;;;3.80;92.60;;;;;;4976003;28;20210;-91
2022/01/19 03:25:30;;;;;;;62.13;25.33;;;3.80;92.50;;;;;;4975282;28;20187;-90
2022/01/19 03:27:55;;;;;;;72.93;31.33;;;3.80;92.50;;;;;;4975259;28;20664;-92
2022/01/19 03:30:22;;;;;;;61.30;27.90;;;3.80;92.40;;;;;;4975259;28;20186;-92
2022/01/19 03:32:48;;;;;;;71.47;35.00;;;3.80;92.50;;;;;;4975746;28;20203;-91
2022/01/19 03:35:15;;;;;;;72.50;29.40;;;3.80;92.50;;;;;;4975180;28;20183;-92
2022/01/19 03:37:41;;;;;;;73.93;36.80;;;3.80;92.50;;;;;;4975284;28;20190;-93
2022/01/19 03:40:09;;;;;;;85.57;35.83;;;3.80;92.60;;;;;;4975198;28;20596;-91
2022/01/19 03:42:36;;;;;;;75.57;34.27;;;3.80;92.40;;;;;;4959398;28;20205;-93
2022/01/19 03:45:03;;;;;;;95.73;42.90;;;3.80;92.40;;;;;;4975606;28;20232;-91
2022/01/19 03:47:38;;;;;;;101.33;45.90;;;3.90;92.50;;;;;;4974960;28;20655;-93
2022/01/19 03:50:04;;;;;;;91.93;39.57;;;3.90;92.50;;;;;;4975257;28;20351;-92
2022/01/19 03:52:30;;;;;;;93.23;45.03;;;3.90;92.50;;;;;;4974892;28;20258;-90
2022/01/19 03:54:55;;;;;;;86.10;40.50;;;3.90;92.60;;;;;;4975028;28;20229;-90
2022/01/19 03:57:21;;;;;;;87.10;42.77;;;3.90;92.50;;;;;;4975233;28;20178;-92
2022/01/19 03:59:47;;;;;;;91.40;40.90;;;3.90;92.60;;;;;;4974955;28;20210;-91
2022/01/19 04:02:13;;;;;;;99.20;45.83;;;3.80;92.60;;;;;;4974874;28;20628;-91
2022/01/19 04:04:47;;;;;;;95.20;44.00;;;3.90;92.70;;;;;;4975010;28;20217;-92
2022/01/19 04:07:14;;;;;;;93.53;38.87;;;3.80;92.70;;;;;;4974839;28;20643;-92
2022/01/19 04:09:42;;;;;;;83.73;40.77;;;3.90;92.70;;;;;;4975122;28;20186;-92
2022/01/19 04:12:12;;;;;;;76.20;35.97;;;3.80;92.60;;;;;;4975036;28;20178;-91
2022/01/19 04:14:38;;;;;;;66.53;32.00;;;3.90;92.60;;;;;;4974585;28;20201;-92
2022/01/19 04:17:10;;;;;;;73.17;34.93;;;3.80;92.60;;;;;;4974837;28;20182;-91
2022/01/19 04:19:47;;;;;;;69.13;33.33;;;3.80;92.60;;;;;;4974833;28;20617;-92
2022/01/19 04:22:18;;;;;;;57.63;25.80;;;3.80;92.60;;;;;;4974497;28;20638;-91
2022/01/19 04:24:45;;;;;;;53.00;24.93;;;3.80;92.60;;;;;;4988223;23;20231;-90
2022/01/19 04:29:59;;;;;;;60.30;30.20;;;3.80;92.60;;;;;;4974736;28;20499;-90
2022/01/19 04:32:43;;;;;;;50.40;26.37;;;3.80;92.60;;;;;;4973224;28;20204;-90
2022/01/19 04:35:12;;;;;;;57.53;23.87;;;3.70;92.50;;;;;;4973213;28;20277;-90
2022/01/19 05:07:22;;;;;;;35.80;18.90;;;3.70;92.90;;;;;;4974522;28;20183;-90
2022/01/19 05:13:24;;;;;;;26.87;12.03;;;3.70;92.80;;;;;;4973491;28;20177;-89
2022/01/19 05:15:32;;;;;;;49.57;20.60;;;3.70;92.70;;;;;;4973984;28;20190;-90
2022/01/19 05:17:57;;;;;;;43.63;18.60;;;3.70;92.80;;;;;;4972772;28;20178;-89
2022/01/19 05:20:23;;;;;;;45.67;21.67;;;3.70;92.70;;;;;;4972701;28;20228;-90
2022/01/19 05:22:48;;;;;;;48.47;23.47;;;3.70;92.60;;;;;;4973561;28;20183;-90
2022/01/19 05:25:14;;;;;;;40.30;18.17;;;3.70;92.60;;;;;;4973768;28;20212;-89
2022/01/19 05:27:40;;;;;;;41.10;19.17;;;3.70;92.70;;;;;;4976507;28;20553;-89
2022/01/19 05:30:06;;;;;;;46.73;21.30;;;3.70;92.70;;;;;;4976129;28;20190;-89
2022/01/19 05:32:32;;;;;;;37.03;15.43;;;3.70;92.70;;;;;;4976269;28;20179;-89
2022/01/19 05:34:57;;;;;;;31.73;15.07;;;3.70;92.80;;;;;;4977217;28;20225;-89
2022/01/19 05:37:23;;;;;;;39.27;16.17;;;3.70;92.70;;;;;;4976202;28;20230;-89
2022/01/19 05:39:48;;;;;;;42.93;19.50;;;3.70;92.60;;;;;;4977088;28;20337;-90
2022/01/19 05:42:15;;;;;;;26.63;13.53;;;3.70;92.70;;;;;;4975974;28;20183;-90
2022/01/19 05:44:43;;;;;;;33.03;14.10;;;3.70;92.60;;;;;;4975847;28;20198;-89
2022/01/19 05:47:13;;;;;;;25.83;12.93;;;3.70;92.70;;;;;;4976127;28;20217;-89
2022/01/19 05:49:39;;;;;;;35.40;13.00;;;3.80;92.70;;;;;;4977570;28;20623;-90
2022/01/19 05:52:06;;;;;;;31.90;13.27;;;3.70;92.70;;;;;;4975689;28;20212;-89
2022/01/19 05:54:32;;;;;;;25.00;11.80;;;3.80;92.70;;;;;;4975810;28;20709;-90
2022/01/19 05:56:58;;;;;;;25.80;12.50;;;3.80;92.50;;;;;;4976876;28;20183;-90
2022/01/19 05:59:24;;;;;;;21.13;12.13;;;3.80;92.60;;;;;;4975499;28;20206;-90
2022/01/19 06:01:50;;;;;;;29.97;12.73;;;3.80;92.70;;;;;;4975631;28;20635;-89
2022/01/19 06:04:15;;;;;;;39.47;15.13;;;3.80;92.80;;;;;;4976608;28;20734;-89
2022/01/19 06:06:41;;;;;;;38.63;18.10;;;3.80;92.80;;;;;;4976979;28;20183;-90
2022/01/19 06:09:22;;;;;;;31.40;14.27;;;3.80;92.80;;;;;;4975421;28;20221;-90
2022/01/19 06:11:48;;;;;;;29.13;12.50;;;3.80;92.70;;;;;;4976295;28;20189;-90
2022/01/19 06:14:13;;;;;;;39.97;19.90;;;3.90;92.60;;;;;;4975603;28;20574;-90
2022/01/19 06:16:40;;;;;;;43.30;17.27;;;3.90;92.60;;;;;;4976459;28;20185;-90
2022/01/19 06:19:06;;;;;;;37.57;17.63;;;3.90;92.60;;;;;;4975215;28;20206;-90
2022/01/19 06:21:32;;;;;;;57.30;23.67;;;4.00;92.50;;;;;;4975227;28;20182;-90
2022/01/19 06:23:58;;;;;;;46.83;20.67;;;4.00;92.50;;;;;;4975236;28;20228;-90
2022/01/19 06:26:23;;;;;;;55.40;25.57;;;4.00;92.50;;;;;;4975271;28;20625;-90
2022/01/19 06:28:50;;;;;;;65.87;29.43;;;4.10;92.60;;;;;;4975217;28;20662;-90
2022/01/19 06:31:16;;;;;;;74.80;29.90;;;4.10;92.60;;;;;;4975124;28;20559;-90
2022/01/19 06:33:41;;;;;;;64.07;26.27;;;4.10;92.50;;;;;;4976068;28;20191;-90
2022/01/19 06:36:07;;;;;;;64.20;27.07;;;4.10;92.40;;;;;;4975044;28;20237;-90
2022/01/19 06:38:33;;;;;;;46.50;22.07;;;4.10;92.40;;;;;;4974251;28;20563;-90
2022/01/19 06:40:58;;;;;;;48.30;21.83;;;4.20;92.40;;;;;;4975327;28;20667;-90
2022/01/19 06:43:24;;;;;;;75.67;33.20;;;4.20;92.50;;;;;;4976477;28;20198;-90
2022/01/19 06:45:49;;;;;;;75.27;31.67;;;4.20;92.50;;;;;;4975913;28;20202;-90
2022/01/19 06:48:15;;;;;;;80.70;35.40;;;4.20;92.50;;;;;;4974759;28;20183;-90
2022/01/19 06:50:41;;;;;;;86.53;36.87;;;4.20;92.60;;;;;;4975895;28;20593;-90
2022/01/19 06:53:06;;;;;;;97.23;38.83;;;4.20;92.40;;;;;;4974516;28;20187;-90
2022/01/19 06:55:32;;;;;;;91.67;35.40;;;4.20;92.40;;;;;;4974810;28;20291;-90
2022/01/19 06:57:57;;;;;;;85.80;38.63;;;4.30;92.40;;;;;;4974760;28;20262;-90
2022/01/19 07:00:23;;;;;;;90.50;40.20;;;4.20;92.40;;;;;;4974728;28;20208;-90
2022/01/19 07:02:49;;;;;;;69.97;30.63;;;4.20;92.50;;;;;;4974815;28;20171;-90
2022/01/19 07:05:14;;;;;;;88.80;41.83;;;4.30;92.40;;;;;;4974326;28;20201;-90
2022/01/19 07:07:41;;;;;;;80.77;37.33;;;4.30;92.50;;;;;;4974294;28;20191;-90
2022/01/19 07:10:08;;;;;;;79.00;37.43;;;4.20;92.50;;;;;;4974817;28;20174;-89
2022/01/19 07:12:34;;;;;;;78.53;35.97;;;4.30;92.40;;;;;;4974551;28;20179;-90
2022/01/19 07:15:00;;;;;;;76.70;34.53;;;4.20;92.40;;;;;;4975417;28;20195;-90
2022/01/19 07:17:26;;;;;;;77.63;36.97;;;4.20;92.30;;;;;;4974453;28;20234;-90
2022/01/19 07:19:51;;;;;;;61.37;29.37;;;4.20;92.30;;;;;;4975395;28;20202;-89
2022/01/19 07:22:17;;;;;;;78.37;38.47;;;4.20;92.30;;;;;;4974258;28;20635;-90
2022/01/19 07:24:43;;;;;;;71.87;31.70;;;4.20;92.30;;;;;;4974029;28;20306;-89
2022/01/19 07:27:09;;;;;;;70.57;35.13;;;4.20;92.30;;;;;;4974834;28;20529;-90
2022/01/19 07:29:35;;;;;;;64.80;31.00;;;4.10;92.30;;;;;;4973977;28;20269;-90
2022/01/19 07:32:01;;;;;;;78.43;34.20;;;4.10;92.30;;;;;;4974387;28;20662;-90
2022/01/19 07:34:26;;;;;;;78.10;35.60;;;4.20;92.30;;;;;;4974626;28;20194;-90
2022/01/19 07:36:54;;;;;;;83.53;36.63;;;4.10;92.20;;;;;;4974109;28;20210;-90
2022/01/19 07:39:20;;;;;;;72.33;36.00;;;4.10;92.20;;;;;;4974502;28;20202;-90
2022/01/19 07:41:45;;;;;;;76.40;33.87;;;4.10;92.30;;;;;;4973761;28;20226;-90
2022/01/19 07:44:11;;;;;;;64.10;34.53;;;4.10;92.30;;;;;;4974774;28;20268;-90
2022/01/19 07:46:36;;;;;;;66.63;30.43;;;4.10;92.30;;;;;;4973735;28;20254;-90
2022/01/19 07:49:02;;;;;;;87.17;45.07;;;4.20;92.10;;;;;;4974831;28;20571;-90
2022/01/19 07:51:28;;;;;;;87.23;39.30;;;4.20;92.00;;;;;;4973591;28;20178;-90
2022/01/19 07:53:53;;;;;;;77.57;35.33;;;4.30;92.00;;;;;;4973455;28;20570;-90
2022/01/19 07:56:19;;;;;;;83.30;38.67;;;4.30;91.90;;;;;;4974786;28;20175;-90
2022/01/19 07:58:45;;;;;;;64.73;35.53;;;4.30;91.80;;;;;;4973492;28;20187;-89
2022/01/19 08:01:10;;;;;;;55.43;26.10;;;4.30;91.70;;;;;;4973656;28;20214;-90
2022/01/19 08:03:36;;;;;;;58.80;29.37;;;4.30;91.60;;;;;;4974612;28;20194;-90
2022/01/19 08:06:02;;;;;;;69.00;34.43;;;4.30;91.60;;;;;;4973423;28;20532;-90
2022/01/19 08:08:27;;;;;;;70.10;34.83;;;4.40;90.90;;;;;;4973355;28;20241;-90
2022/01/19 08:10:53;;;;;;;44.73;23.33;;;4.40;91.00;;;;;;4973359;28;20237;-90
2022/01/19 08:13:18;;;;;;;78.40;38.10;;;4.40;91.10;;;;;;4974726;28;20540;-90
2022/01/19 08:15:44;;;;;;;44.33;22.97;;;4.40;91.10;;;;;;4973448;28;20285;-90
2022/01/19 08:18:10;;;;;;;75.87;32.87;;;4.40;91.00;;;;;;4973417;28;20240;-90
2022/01/19 08:20:35;;;;;;;70.90;36.17;;;4.50;90.90;;;;;;4973278;28;20218;-90
2022/01/19 08:23:03;;;;;;;69.30;34.23;;;4.40;91.00;;;;;;4973622;28;20180;-90
2022/01/19 08:25:29;;;;;;;68.20;34.20;;;4.50;90.80;;;;;;4973117;28;20575;-90
2022/01/19 08:27:55;;;;;;;61.87;29.37;;;4.50;90.90;;;;;;4973268;28;20187;-90
2022/01/19 08:30:20;;;;;;;66.70;35.00;;;4.50;90.70;;;;;;4973244;28;20179;-90
2022/01/19 08:32:46;;;;;;;53.10;24.47;;;4.50;90.50;;;;;;4973225;28;20273;-90
2022/01/19 08:35:12;;;;;;;65.33;31.83;;;4.50;90.60;;;;;;4974323;28;20205;-89
2022/01/19 08:37:38;;;;;;;60.67;25.67;;;4.50;90.60;;;;;;4973162;28;20575;-90
2022/01/19 08:40:08;;;;;;;70.07;32.50;;;4.50;90.30;;;;;;4972866;28;20298;-90
2022/01/19 08:42:36;;;;;;;58.70;29.40;;;4.50;90.40;;;;;;4973104;28;20265;-90
2022/01/19 08:45:07;;;;;;;51.00;23.53;;;4.50;90.40;;;;;;4973903;28;20250;-90
2022/01/19 08:47:35;;;;;;;41.47;21.47;;;4.60;90.00;;;;;;4973151;28;20555;-89
2022/01/19 08:50:01;;;;;;;50.60;25.37;;;4.60;90.10;;;;;;4973101;28;20180;-90
2022/01/19 08:52:26;;;;;;;70.13;30.23;;;4.60;90.10;;;;;;4974298;28;20175;-90
2022/01/19 08:54:52;;;;;;;68.70;33.13;;;4.60;90.00;;;;;;4973035;28;20315;-90
2022/01/19 08:57:18;;;;;;;64.43;31.67;;;4.60;90.20;;;;;;4972883;28;20182;-89
2022/01/19 08:59:44;;;;;;;86.70;41.80;;;4.60;90.10;;;;;;4972880;28;20663;-89
2022/01/19 09:02:10;;;;;;;54.80;27.10;;;4.60;90.20;;;;;;4976617;28;20250;-89
2022/01/19 09:04:36;;;;;;;67.57;32.10;;;4.60;90.10;;;;;;4977675;28;20282;-89
2022/01/19 09:07:02;;;;;;;74.80;36.57;;;4.60;89.90;;;;;;4977012;28;20602;-90
2022/01/19 09:09:28;;;;;;;67.97;33.57;;;4.60;89.70;;;;;;4976502;28;20233;-90
2022/01/19 09:11:54;;;;;;;62.37;33.93;;;4.60;90.00;;;;;;4977638;28;20179;-90
2022/01/19 09:14:20;;;;;;;66.17;29.83;;;4.60;89.80;;;;;;4976332;28;20622;-90
2022/01/19 09:16:49;;;;;;;56.90;29.23;;;4.60;89.60;;;;;;4976889;28;20274;-90
2022/01/19 09:19:16;;;;;;;71.10;34.30;;;4.60;89.60;;;;;;4976277;28;22626;-90
2022/01/19 09:21:41;;;;;;;69.87;36.80;;;4.60;89.70;;;;;;4977755;28;20175;-90
2022/01/19 09:24:10;;;;;;;49.90;27.20;;;4.60;89.60;;;;;;4976189;28;20710;-90
2022/01/19 09:26:36;;;;;;;74.97;41.10;;;4.60;89.60;;;;;;4976246;28;20190;-89
2022/01/19 09:29:03;;;;;;;65.43;33.77;;;4.60;89.50;;;;;;4976224;28;20196;-90
2022/01/19 09:31:29;;;;;;;78.93;40.03;;;4.70;89.70;;;;;;4976204;28;20270;-90
2022/01/19 09:34:05;;;;;;;68.73;36.30;;;4.70;89.80;;;;;;4975981;28;20217;-90
2022/01/19 09:36:34;;;;;;;89.33;37.40;;;4.70;89.80;;;;;;4976842;28;20206;-90
2022/01/19 09:39:00;;;;;;;59.03;34.53;;;4.70;89.80;;;;;;4976757;28;20546;-90
2022/01/19 09:41:25;;;;;;;77.33;39.30;;;4.70;89.80;;;;;;4975940;28;20176;-90
2022/01/19 09:43:51;;;;;;;78.00;40.27;;;4.70;90.00;;;;;;4975726;28;20674;-90
2022/01/19 09:46:17;;;;;;;68.47;35.47;;;4.70;89.90;;;;;;4977124;28;20179;-90
2022/01/19 09:48:43;;;;;;;66.33;32.67;;;4.70;90.00;;;;;;4976663;28;20530;-89
2022/01/19 09:51:09;;;;;;;53.50;28.00;;;4.70;89.60;;;;;;4975806;28;20183;-90
2022/01/19 09:53:35;;;;;;;61.20;33.07;;;4.80;90.00;;;;;;4977178;28;20209;-89
2022/01/19 09:56:03;;;;;;;65.53;31.13;;;4.80;89.40;;;;;;4976858;28;20171;-90
2022/01/19 09:58:29;;;;;;;59.37;31.10;;;4.80;89.40;;;;;;4975834;28;20177;-90
2022/01/19 10:00:54;;;;;;;48.77;26.50;;;4.80;89.30;;;;;;4975550;28;20291;-90
2022/01/19 10:03:31;;;;;;;65.83;35.53;;;4.80;89.30;;;;;;4975826;28;20222;-90
2022/01/19 10:06:09;;;;;;;46.47;25.90;;;4.80;89.30;;;;;;4976371;28;20178;-90
2022/01/19 10:08:45;;;;;;;54.77;27.33;;;4.80;89.10;;;;;;4975583;28;20282;-90
2022/01/19 10:17:01;;;;;;;62.50;32.37;;;4.80;89.30;;;;;;4976966;28;20186;-90
2022/01/19 10:19:44;;;;;;;64.40;35.40;;;4.80;89.20;;;;;;4975298;28;20203;-90
2022/01/19 10:22:15;;;;;;;62.77;32.73;;;4.80;89.30;;;;;;4975650;28;20163;-90
2022/01/19 10:25:04;;;;;;;63.10;34.30;;;4.90;89.00;;;;;;4999738;23;20223;-91
2022/01/19 10:27:37;;;;;;;61.30;33.50;;;4.80;88.80;;;;;;4977500;28;20210;-91
2022/01/19 10:30:03;;;;;;;43.57;22.47;;;4.80;88.40;;;;;;4978139;28;20195;-92
2022/01/19 10:32:41;;;;;;;44.07;26.13;;;4.80;88.20;;;;;;4976248;28;20187;-92
2022/01/19 10:35:15;;;;;;;45.37;28.30;;;4.80;87.80;;;;;;4977254;28;20198;-93
2022/01/19 10:37:41;;;;;;;37.83;23.40;;;4.80;87.90;;;;;;4977105;28;20178;-93
2022/01/19 10:40:12;;;;;;;50.97;23.63;;;4.70;87.50;;;;;;4977670;28;20265;-93
2022/01/19 10:42:39;;;;;;;55.83;33.03;;;4.80;87.60;;;;;;4976954;28;20253;-92
2022/01/19 10:45:10;;;;;;;43.93;26.67;;;4.70;87.50;;;;;;4979644;28;20195;-92
2022/01/19 10:47:53;;;;;;;48.13;31.83;;;4.60;87.20;;;;;;4979401;28;20260;-93
2022/01/19 10:50:30;;;;;;;49.83;31.47;;;4.60;87.70;;;;;;4982297;28;20635;-92
2022/01/19 10:52:59;;;;;;;51.57;31.73;;;4.70;88.00;;;;;;4979377;28;20265;-94
2022/01/19 10:55:40;;;;;;;41.03;27.30;;;4.60;88.00;;;;;;4979251;28;20199;-93
2022/01/19 10:58:15;;;;;;;52.00;32.80;;;4.60;87.60;;;;;;4977754;28;20209;-93
2022/01/19 11:00:50;;;;;;;50.80;30.47;;;4.60;87.60;;;;;;4976503;28;20190;-94
2022/01/19 11:03:21;;;;;;;50.27;32.30;;;4.60;87.40;;;;;;4975873;28;20170;-93
2022/01/19 11:05:58;;;;;;;52.50;34.17;;;4.50;87.60;;;;;;4976071;28;20202;-93
2022/01/19 11:08:26;;;;;;;53.63;33.43;;;4.50;87.70;;;;;;4975764;28;20512;-93
2022/01/19 11:10:54;;;;;;;51.33;29.37;;;4.50;88.00;;;;;;4975761;28;20186;-92
2022/01/19 11:13:37;;;;;;;29.13;18.03;;;4.50;87.70;;;;;;4976031;28;20184;-92
2022/01/19 11:16:04;;;;;;;32.77;21.87;;;4.50;87.50;;;;;;4976019;28;20226;-93
2022/01/19 11:18:32;;;;;;;36.20;25.37;;;4.60;87.30;;;;;;4975763;28;20185;-93
2022/01/19 11:21:01;;;;;;;28.60;18.30;;;4.50;87.40;;;;;;4975430;28;20222;-93
2022/01/19 11:23:59;;;;;;;33.83;19.47;;;4.60;87.20;;;;;;4975213;28;20178;-92
2022/01/19 11:26:30;;;;;;;27.70;18.77;;;4.60;86.90;;;;;;4974060;28;20207;-93
2022/01/19 11:29:20;;;;;;;23.63;16.13;;;4.60;87.00;;;;;;4975765;28;20176;-92
2022/01/19 11:31:47;;;;;;;32.30;23.40;;;4.60;87.40;;;;;;4974817;28;20262;-92
2022/01/19 11:34:15;;;;;;;23.07;12.73;;;4.40;87.50;;;;;;4975102;28;20187;-92
2022/01/19 11:36:42;;;;;;;27.37;13.27;;;4.30;87.80;;;;;;4974713;28;20179;-91
2022/01/19 11:39:21;;;;;;;23.77;14.60;;;4.30;87.60;;;;;;4974938;28;20265;-92
2022/01/19 11:41:54;;;;;;;18.40;12.93;;;4.40;87.60;;;;;;4974919;28;20205;-92
2022/01/19 11:44:32;;;;;;;20.17;12.63;;;4.30;87.50;;;;;;4975333;28;20181;-92
2022/01/19 11:47:16;;;;;;;28.97;18.57;;;4.30;87.20;;;;;;4975404;28;20234;-93
2022/01/19 11:50:00;;;;;;;31.27;19.93;;;4.30;87.50;;;;;;4974955;28;20209;-92
2022/01/19 11:52:51;;;;;;;24.57;17.70;;;4.30;87.90;;;;;;4975125;28;20175;-92
2022/01/19 11:55:23;;;;;;;41.53;25.17;;;4.30;87.90;;;;;;4971198;28;20214;-92
2022/01/19 11:58:10;;;;;;;37.57;21.70;;;4.20;88.40;;;;;;4975220;28;20230;-92
2022/01/19 12:00:36;;;;;;;32.03;17.50;;;4.30;88.80;;;;;;4975632;28;20186;-92
2022/01/19 12:03:21;;;;;;;48.00;27.30;;;4.20;88.60;;;;;;4975346;28;20590;-93
2022/01/19 12:05:50;;;;;;;47.67;28.50;;;4.10;88.80;;;;;;4974633;28;20206;-92
2022/01/19 12:08:29;;;;;;;47.03;27.30;;;4.10;89.00;;;;;;4975391;28;20175;-92
2022/01/19 12:11:01;;;;;;;36.20;23.07;;;4.10;89.30;;;;;;4974404;28;20218;-92
2022/01/19 12:16:31;;;;;;;36.13;22.50;;;4.10;88.80;;;;;;4975505;28;20190;-91
2022/01/19 12:18:58;;;;;;;48.50;30.47;;;4.10;88.70;;;;;;4974408;28;20275;-92
2022/01/19 12:21:32;;;;;;;34.80;24.00;;;4.00;88.90;;;;;;4975557;28;20235;-91
2022/01/19 12:24:25;;;;;;;27.57;17.47;;;4.10;88.70;;;;;;4973744;28;20241;-91
2022/01/19 12:26:53;;;;;;;35.53;24.70;;;4.00;88.80;;;;;;4975055;28;20174;-91
2022/01/19 12:29:49;;;;;;;29.63;19.83;;;4.00;88.80;;;;;;4974207;28;20175;-91
2022/01/19 12:32:18;;;;;;;36.13;25.10;;;4.00;89.00;;;;;;4973932;28;20179;-91
2022/01/19 12:34:55;;;;;;;33.40;21.13;;;4.00;89.00;;;;;;4973505;28;20286;-92
2022/01/19 12:37:27;;;;;;;40.83;28.53;;;3.90;88.90;;;;;;4977738;28;20174;-92
2022/01/19 12:39:54;;;;;;;37.57;23.30;;;3.90;89.20;;;;;;4978009;28;20213;-91
2022/01/19 12:42:26;;;;;;;29.23;19.30;;;4.00;89.10;;;;;;4977919;28;20178;-91
2022/01/19 12:44:55;;;;;;;29.80;21.33;;;3.90;89.40;;;;;;4977774;28;20198;-91
2022/01/19 12:47:26;;;;;;;44.33;26.97;;;4.00;89.00;;;;;;4977579;28;20202;-90
2022/01/19 12:49:57;;;;;;;42.13;26.70;;;4.00;89.00;;;;;;4979076;28;20181;-90
2022/01/19 12:52:26;;;;;;;51.13;34.83;;;4.00;88.90;;;;;;4977771;28;20210;-91
2022/01/19 12:54:54;;;;;;;43.07;25.20;;;4.00;89.20;;;;;;4978432;28;20253;-91
2022/01/19 12:57:20;;;;;;;42.07;24.70;;;4.00;89.20;;;;;;4978916;28;20238;-89
2022/01/19 12:59:48;;;;;;;46.17;28.37;;;4.00;89.40;;;;;;4977845;28;20710;-91
2022/01/19 13:02:16;;;;;;;48.67;32.80;;;4.10;89.50;;;;;;4977576;28;20182;-91
2022/01/19 13:04:47;;;;;;;47.37;30.53;;;4.00;89.20;;;;;;4977343;28;20194;-92
2022/01/19 13:07:18;;;;;;;49.13;29.37;;;4.00;89.60;;;;;;4977275;28;20216;-91
2022/01/19 13:10:28;;;;;;;43.50;27.87;;;4.00;89.60;;;;;;4978164;28;20585;-91
2022/01/19 13:13:07;;;;;;;36.17;20.40;;;4.00;89.70;;;;;;4977921;28;20233;-91
2022/01/19 13:15:53;;;;;;;56.23;31.20;;;4.00;89.50;;;;;;4977384;28;20194;-91
2022/01/19 13:18:28;;;;;;;47.57;26.27;;;4.00;89.70;;;;;;4978278;28;20174;-91
2022/01/19 13:20:56;;;;;;;34.47;18.87;;;4.00;89.70;;;;;;4978173;28;20237;-91
2022/01/19 13:23:23;;;;;;;37.50;23.00;;;4.00;89.70;;;;;;4979015;28;20171;-91
2022/01/19 13:26:01;;;;;;;53.27;32.83;;;4.10;89.60;;;;;;4977563;28;20217;-91
2022/01/19 13:28:33;;;;;;;48.73;27.83;;;4.10;89.80;;;;;;4977766;28;20571;-91
2022/01/19 13:31:15;;;;;;;48.73;29.20;;;4.10;89.80;;;;;;4977738;28;20175;-90
2022/01/19 13:33:51;;;;;;;35.10;20.57;;;4.10;89.50;;;;;;4977598;28;20612;-90
2022/01/19 13:36:16;;;;;;;51.40;29.00;;;4.10;89.70;;;;;;4977995;28;20241;-91
2022/01/19 13:38:51;;;;;;;54.07;31.03;;;4.10;89.60;;;;;;4977589;28;20189;-90
2022/01/19 13:41:16;;;;;;;34.47;19.77;;;4.20;89.70;;;;;;4977952;28;20197;-90
2022/01/19 13:43:42;;;;;;;56.50;31.43;;;4.20;89.90;;;;;;4978050;28;20178;-91
2022/01/19 13:46:15;;;;;;;43.43;23.30;;;4.20;89.70;;;;;;4977228;28;20233;-91
2022/01/19 13:48:45;;;;;;;47.77;27.47;;;4.20;89.60;;;;;;4977549;28;20233;-91
2022/01/19 13:51:14;;;;;;;42.70;26.30;;;4.20;89.60;;;;;;4977723;28;20595;-91
2022/01/19 13:53:49;;;;;;;47.33;28.33;;;4.20;89.70;;;;;;4978071;28;20658;-91
2022/01/19 13:56:24;;;;;;;68.67;39.97;;;4.20;89.70;;;;;;4976863;28;20206;-91
2022/01/19 13:58:59;;;;;;;54.13;29.10;;;4.20;89.50;;;;;;4976930;28;20261;-91
2022/01/19 14:01:40;;;;;;;43.90;24.90;;;4.30;89.70;;;;;;4977155;28;20225;-91
2022/01/19 14:04:11;;;;;;;43.67;28.40;;;4.30;89.60;;;;;;4976643;28;20212;-91
2022/01/19 14:06:45;;;;;;;52.23;24.30;;;4.30;89.60;;;;;;4976408;28;20220;-91
2022/01/19 14:09:13;;;;;;;55.67;33.77;;;4.30;89.90;;;;;;4976866;28;20217;-91
2022/01/19 14:11:42;;;;;;;51.93;31.03;;;4.30;89.80;;;;;;4976187;28;20171;-91
2022/01/19 14:14:11;;;;;;;46.90;26.77;;;4.30;89.80;;;;;;4976299;28;20206;-91
2022/01/19 14:16:47;;;;;;;55.70;29.70;;;4.30;89.90;;;;;;4976150;28;20202;-91
2022/01/19 14:19:18;;;;;;;49.37;23.43;;;4.30;89.80;;;;;;4976660;28;20707;-91